Aérodrome :
LOGIN :

S'inscrire | Disclaimer

   EN    FR    IT 

 










Légende :    VFR   VFR Marginal   IFR   IFR Intensif   IFR Très Intensif
Visi : 
Plafond : 
>= 8 km
>= 3000ft
5 à 8 km
1000 à 3000 ft
1500m à 5 km
500 à 1000 ft
800 à 1500m
200 à 500 ft
< 800m
< 200 ft
Symboles :   Orages  Brouillard  Fortes neiges  Fortes précipitations  Vent > 20 kt
SIGMETs :   Divers  Orages  Givrage  Turbulence  Onde Orograph.  Cendres Volcan.







- Altitude de l'aérodrome : 1470 ft
- Code IATA : KLU


LOWK - Klagenfurt

DERNIER METAR :
  • 190420Z AUTO VRB01KT 9999 NSC M03/M04 Q1020

METARs EXPIRÉS :
  • 190350Z AUTO VRB01KT 9999 NSC M03/M04 Q1020
  • 190320Z AUTO 31004KT 270V330 9999 NSC M03/M04 Q1020
  • 190250Z AUTO 32003KT 9999 NSC M03/M04 Q1020
  • 190220Z AUTO 29004KT 250V310 9999 NSC M02/M04 Q1020
  • 190150Z AUTO 29003KT 240V320 9999 NSC M02/M04 Q1020
  • 190120Z AUTO VRB02KT 9999 NSC M02/M04 Q1020

TAF TAF LOWK
Valide du 19 à 00h jusqu'au 20 à 00h UTC


182315Z 1900/1924 VRB02KT CAVOK TX11/1915Z TNM03/1906Z
Pas de NOTAMs connus pour ce terrain.



MET'MAP, la Météo Aéronautique d'un coup d'oeil ! - Copyright ORBIFLY Décembre 2007 - Disclaimer

ORBIFLY MET'MAP TEAM :

Programmation & Développement : Alexandra Zaïnal
Conception & Développement : Baudouin d'Aumeries
Co-Programmation & Développement : Marc-Olivier Méhu
Soutien technique & logistique : Manuel Goepfert

Contact : metmap@orbifly.com




SOURCES & CREDITS :

   NOAA